sensor_id;sensor_type;location;lat;lon;timestamp;P1;durP1;ratioP1;P2;durP2;ratioP2
23400;SDS011;11873;49.300;8.920;2023-03-24T00:04:35;4.60;;;3.80;;
23400;SDS011;11873;49.300;8.920;2023-03-24T00:09:36;6.20;;;3.80;;
23400;SDS011;11873;49.300;8.920;2023-03-24T00:14:36;4.10;;;3.80;;
23400;SDS011;11873;49.300;8.920;2023-03-24T00:19:37;4.50;;;4.00;;
23400;SDS011;11873;49.300;8.920;2023-03-24T00:24:37;6.30;;;4.07;;
23400;SDS011;11873;49.300;8.920;2023-03-24T00:29:37;7.10;;;3.83;;
23400;SDS011;11873;49.300;8.920;2023-03-24T00:34:37;4.80;;;4.30;;
23400;SDS011;11873;49.300;8.920;2023-03-24T00:39:37;4.60;;;4.20;;
23400;SDS011;11873;49.300;8.920;2023-03-24T00:44:40;4.87;;;3.93;;
23400;SDS011;11873;49.300;8.920;2023-03-24T00:49:40;4.10;;;3.70;;
23400;SDS011;11873;49.300;8.920;2023-03-24T00:54:41;4.83;;;3.87;;
23400;SDS011;11873;49.300;8.920;2023-03-24T00:59:41;4.30;;;3.90;;
23400;SDS011;11873;49.300;8.920;2023-03-24T01:04:41;5.97;;;4.00;;
23400;SDS011;11873;49.300;8.920;2023-03-24T01:09:41;4.13;;;3.73;;
23400;SDS011;11873;49.300;8.920;2023-03-24T01:14:41;4.60;;;3.90;;
23400;SDS011;11873;49.300;8.920;2023-03-24T01:19:41;6.03;;;4.60;;
23400;SDS011;11873;49.300;8.920;2023-03-24T01:24:42;4.33;;;3.77;;
23400;SDS011;11873;49.300;8.920;2023-03-24T01:29:42;5.27;;;3.80;;
23400;SDS011;11873;49.300;8.920;2023-03-24T01:34:42;4.80;;;3.93;;
23400;SDS011;11873;49.300;8.920;2023-03-24T01:39:42;4.00;;;3.57;;
23400;SDS011;11873;49.300;8.920;2023-03-24T01:44:44;5.90;;;3.80;;
23400;SDS011;11873;49.300;8.920;2023-03-24T01:49:46;3.97;;;3.63;;
23400;SDS011;11873;49.300;8.920;2023-03-24T01:54:54;6.50;;;4.30;;
23400;SDS011;11873;49.300;8.920;2023-03-24T01:59:57;4.10;;;3.70;;
23400;SDS011;11873;49.300;8.920;2023-03-24T02:04:59;5.40;;;4.03;;
23400;SDS011;11873;49.300;8.920;2023-03-24T02:10:01;4.37;;;3.97;;
23400;SDS011;11873;49.300;8.920;2023-03-24T02:15:02;6.57;;;3.93;;
23400;SDS011;11873;49.300;8.920;2023-03-24T02:20:20;4.53;;;3.80;;
23400;SDS011;11873;49.300;8.920;2023-03-24T02:36:25;4.27;;;3.87;;
23400;SDS011;11873;49.300;8.920;2023-03-24T02:41:16;3.93;;;3.53;;
23400;SDS011;11873;49.300;8.920;2023-03-24T02:51:50;14.73;;;12.00;;
23400;SDS011;11873;49.300;8.920;2023-03-24T02:56:53;4.27;;;3.10;;
23400;SDS011;11873;49.300;8.920;2023-03-24T03:01:57;6.23;;;3.90;;
23400;SDS011;11873;49.300;8.920;2023-03-24T03:07:01;3.17;;;2.70;;
23400;SDS011;11873;49.300;8.920;2023-03-24T03:12:02;3.20;;;2.80;;
23400;SDS011;11873;49.300;8.920;2023-03-24T03:17:16;2.67;;;2.47;;
23400;SDS011;11873;49.300;8.920;2023-03-24T03:22:20;3.33;;;3.00;;
23400;SDS011;11873;49.300;8.920;2023-03-24T03:27:26;3.97;;;3.57;;
23400;SDS011;11873;49.300;8.920;2023-03-24T03:32:32;3.90;;;3.43;;
23400;SDS011;11873;49.300;8.920;2023-03-24T03:42:36;4.93;;;3.30;;
23400;SDS011;11873;49.300;8.920;2023-03-24T03:47:37;3.07;;;2.87;;
23400;SDS011;11873;49.300;8.920;2023-03-24T03:52:37;2.87;;;2.67;;
23400;SDS011;11873;49.300;8.920;2023-03-24T03:57:38;3.13;;;2.83;;
23400;SDS011;11873;49.300;8.920;2023-03-24T04:02:45;6.47;;;3.23;;
23400;SDS011;11873;49.300;8.920;2023-03-24T04:18:35;4.90;;;3.70;;
23400;SDS011;11873;49.300;8.920;2023-03-24T04:23:45;4.40;;;3.13;;
23400;SDS011;11873;49.300;8.920;2023-03-24T04:28:53;3.70;;;3.40;;
23400;SDS011;11873;49.300;8.920;2023-03-24T04:33:57;3.93;;;3.47;;
23400;SDS011;11873;49.300;8.920;2023-03-24T04:38:59;4.07;;;3.67;;
23400;SDS011;11873;49.300;8.920;2023-03-24T04:44:00;4.67;;;3.23;;
23400;SDS011;11873;49.300;8.920;2023-03-24T04:49:00;5.43;;;3.63;;
23400;SDS011;11873;49.300;8.920;2023-03-24T04:54:00;7.37;;;3.30;;
23400;SDS011;11873;49.300;8.920;2023-03-24T04:59:01;5.50;;;3.47;;
23400;SDS011;11873;49.300;8.920;2023-03-24T05:04:01;2.80;;;2.03;;
23400;SDS011;11873;49.300;8.920;2023-03-24T05:09:01;2.60;;;2.40;;
23400;SDS011;11873;49.300;8.920;2023-03-24T05:14:01;2.90;;;2.40;;
23400;SDS011;11873;49.300;8.920;2023-03-24T05:19:02;4.03;;;2.70;;
23400;SDS011;11873;49.300;8.920;2023-03-24T05:24:02;3.00;;;2.43;;
23400;SDS011;11873;49.300;8.920;2023-03-24T05:29:02;4.07;;;3.03;;
23400;SDS011;11873;49.300;8.920;2023-03-24T05:34:02;3.77;;;2.80;;
23400;SDS011;11873;49.300;8.920;2023-03-24T05:39:02;3.03;;;2.73;;
23400;SDS011;11873;49.300;8.920;2023-03-24T05:44:03;5.47;;;4.70;;
23400;SDS011;11873;49.300;8.920;2023-03-24T05:49:03;10.93;;;7.43;;
23400;SDS011;11873;49.300;8.920;2023-03-24T05:54:03;9.93;;;7.70;;
23400;SDS011;11873;49.300;8.920;2023-03-24T05:59:03;15.00;;;10.50;;
23400;SDS011;11873;49.300;8.920;2023-03-24T06:04:03;6.27;;;5.63;;
23400;SDS011;11873;49.300;8.920;2023-03-24T06:09:04;11.73;;;9.03;;
23400;SDS011;11873;49.300;8.920;2023-03-24T06:14:04;4.73;;;3.67;;
23400;SDS011;11873;49.300;8.920;2023-03-24T06:19:05;3.40;;;3.10;;
23400;SDS011;11873;49.300;8.920;2023-03-24T06:24:05;3.80;;;3.30;;
23400;SDS011;11873;49.300;8.920;2023-03-24T06:29:05;3.87;;;3.37;;
23400;SDS011;11873;49.300;8.920;2023-03-24T06:34:05;3.67;;;3.37;;
23400;SDS011;11873;49.300;8.920;2023-03-24T06:39:06;4.93;;;3.70;;
23400;SDS011;11873;49.300;8.920;2023-03-24T06:44:06;3.73;;;3.40;;
23400;SDS011;11873;49.300;8.920;2023-03-24T06:49:06;3.20;;;2.80;;
23400;SDS011;11873;49.300;8.920;2023-03-24T06:54:06;2.70;;;2.50;;
23400;SDS011;11873;49.300;8.920;2023-03-24T06:59:07;3.93;;;2.87;;
23400;SDS011;11873;49.300;8.920;2023-03-24T07:04:07;2.97;;;2.67;;
23400;SDS011;11873;49.300;8.920;2023-03-24T07:09:07;3.40;;;3.10;;
23400;SDS011;11873;49.300;8.920;2023-03-24T07:14:07;3.90;;;3.60;;
23400;SDS011;11873;49.300;8.920;2023-03-24T07:19:07;4.10;;;2.90;;
23400;SDS011;11873;49.300;8.920;2023-03-24T07:24:07;2.60;;;2.40;;
23400;SDS011;11873;49.300;8.920;2023-03-24T07:29:08;3.73;;;3.40;;
23400;SDS011;11873;49.300;8.920;2023-03-24T07:34:08;3.27;;;3.07;;
23400;SDS011;11873;49.300;8.920;2023-03-24T07:39:08;5.00;;;4.13;;
23400;SDS011;11873;49.300;8.920;2023-03-24T07:44:09;3.20;;;2.80;;
23400;SDS011;11873;49.300;8.920;2023-03-24T07:49:09;2.80;;;2.60;;
23400;SDS011;11873;49.300;8.920;2023-03-24T07:54:09;3.20;;;2.90;;
23400;SDS011;11873;49.300;8.920;2023-03-24T07:59:09;2.50;;;2.30;;
23400;SDS011;11873;49.300;8.920;2023-03-24T08:04:10;2.23;;;2.03;;
23400;SDS011;11873;49.300;8.920;2023-03-24T08:09:11;2.47;;;2.07;;
23400;SDS011;11873;49.300;8.920;2023-03-24T08:14:13;3.00;;;2.37;;
23400;SDS011;11873;49.300;8.920;2023-03-24T08:19:13;2.43;;;2.23;;
23400;SDS011;11873;49.300;8.920;2023-03-24T08:24:14;1.70;;;1.60;;
23400;SDS011;11873;49.300;8.920;2023-03-24T08:29:14;2.10;;;1.97;;
23400;SDS011;11873;49.300;8.920;2023-03-24T08:34:14;2.30;;;2.10;;
23400;SDS011;11873;49.300;8.920;2023-03-24T08:39:14;3.00;;;2.70;;
23400;SDS011;11873;49.300;8.920;2023-03-24T08:44:15;2.70;;;2.50;;
23400;SDS011;11873;49.300;8.920;2023-03-24T08:49:15;2.37;;;2.17;;
23400;SDS011;11873;49.300;8.920;2023-03-24T08:54:17;2.40;;;2.20;;
23400;SDS011;11873;49.300;8.920;2023-03-24T08:59:17;3.10;;;2.57;;
23400;SDS011;11873;49.300;8.920;2023-03-24T09:04:17;3.47;;;2.97;;
23400;SDS011;11873;49.300;8.920;2023-03-24T09:09:17;1.83;;;1.73;;
23400;SDS011;11873;49.300;8.920;2023-03-24T09:14:18;2.13;;;1.93;;
23400;SDS011;11873;49.300;8.920;2023-03-24T09:19:18;2.53;;;2.03;;
23400;SDS011;11873;49.300;8.920;2023-03-24T09:24:18;2.43;;;2.07;;
23400;SDS011;11873;49.300;8.920;2023-03-24T09:29:18;1.43;;;1.40;;
23400;SDS011;11873;49.300;8.920;2023-03-24T09:34:19;1.30;;;1.30;;
23400;SDS011;11873;49.300;8.920;2023-03-24T09:39:19;2.03;;;1.67;;
23400;SDS011;11873;49.300;8.920;2023-03-24T09:49:23;2.87;;;1.60;;
23400;SDS011;11873;49.300;8.920;2023-03-24T09:54:30;2.67;;;1.83;;
23400;SDS011;11873;49.300;8.920;2023-03-24T09:59:35;2.70;;;1.53;;
23400;SDS011;11873;49.300;8.920;2023-03-24T10:04:36;1.33;;;1.27;;
23400;SDS011;11873;49.300;8.920;2023-03-24T10:09:36;1.43;;;1.30;;
23400;SDS011;11873;49.300;8.920;2023-03-24T10:20:17;2.83;;;1.40;;
23400;SDS011;11873;49.300;8.920;2023-03-24T10:25:31;1.43;;;1.33;;
23400;SDS011;11873;49.300;8.920;2023-03-24T10:30:35;1.33;;;1.23;;
23400;SDS011;11873;49.300;8.920;2023-03-24T10:35:36;1.90;;;1.80;;
23400;SDS011;11873;49.300;8.920;2023-03-24T10:40:38;1.70;;;1.60;;
23400;SDS011;11873;49.300;8.920;2023-03-24T10:45:40;1.90;;;1.73;;
23400;SDS011;11873;49.300;8.920;2023-03-24T10:50:42;2.13;;;1.93;;
23400;SDS011;11873;49.300;8.920;2023-03-24T10:55:42;2.00;;;1.90;;
23400;SDS011;11873;49.300;8.920;2023-03-24T11:00:43;2.73;;;2.03;;
23400;SDS011;11873;49.300;8.920;2023-03-24T11:05:43;2.60;;;1.40;;
23400;SDS011;11873;49.300;8.920;2023-03-24T11:10:44;3.53;;;1.90;;
23400;SDS011;11873;49.300;8.920;2023-03-24T11:16:03;1.90;;;1.70;;
23400;SDS011;11873;49.300;8.920;2023-03-24T11:21:04;1.00;;;1.00;;
23400;SDS011;11873;49.300;8.920;2023-03-24T11:26:15;1.50;;;1.40;;
23400;SDS011;11873;49.300;8.920;2023-03-24T11:31:20;2.10;;;1.37;;
23400;SDS011;11873;49.300;8.920;2023-03-24T11:36:35;1.47;;;1.17;;
23400;SDS011;11873;49.300;8.920;2023-03-24T11:41:37;0.90;;;0.90;;
23400;SDS011;11873;49.300;8.920;2023-03-24T11:46:38;0.67;;;0.67;;
23400;SDS011;11873;49.300;8.920;2023-03-24T11:51:41;1.20;;;1.03;;
23400;SDS011;11873;49.300;8.920;2023-03-24T11:56:47;0.80;;;0.80;;
23400;SDS011;11873;49.300;8.920;2023-03-24T12:01:50;0.40;;;0.40;;
23400;SDS011;11873;49.300;8.920;2023-03-24T12:17:22;0.40;;;0.40;;
23400;SDS011;11873;49.300;8.920;2023-03-24T12:22:56;0.30;;;0.30;;
23400;SDS011;11873;49.300;8.920;2023-03-24T12:38:33;0.30;;;0.30;;
23400;SDS011;11873;49.300;8.920;2023-03-24T12:59:18;0.40;;;0.40;;
23400;SDS011;11873;49.300;8.920;2023-03-24T13:04:25;0.40;;;0.40;;
23400;SDS011;11873;49.300;8.920;2023-03-24T13:19:52;0.40;;;0.40;;
23400;SDS011;11873;49.300;8.920;2023-03-24T13:24:53;0.37;;;0.37;;
23400;SDS011;11873;49.300;8.920;2023-03-24T13:30:01;0.40;;;0.40;;
23400;SDS011;11873;49.300;8.920;2023-03-24T13:35:05;0.50;;;0.50;;
23400;SDS011;11873;49.300;8.920;2023-03-24T13:40:17;0.40;;;0.40;;
23400;SDS011;11873;49.300;8.920;2023-03-24T13:46:00;0.40;;;0.40;;
23400;SDS011;11873;49.300;8.920;2023-03-24T13:51:03;0.40;;;0.40;;
23400;SDS011;11873;49.300;8.920;2023-03-24T13:56:01;0.40;;;0.40;;
23400;SDS011;11873;49.300;8.920;2023-03-24T14:01:04;0.40;;;0.40;;
23400;SDS011;11873;49.300;8.920;2023-03-24T14:06:07;0.40;;;0.40;;
23400;SDS011;11873;49.300;8.920;2023-03-24T14:11:53;0.50;;;0.50;;
23400;SDS011;11873;49.300;8.920;2023-03-24T14:16:39;0.40;;;0.40;;
23400;SDS011;11873;49.300;8.920;2023-03-24T14:21:40;0.40;;;0.40;;
23400;SDS011;11873;49.300;8.920;2023-03-24T14:26:40;0.40;;;0.40;;
23400;SDS011;11873;49.300;8.920;2023-03-24T14:31:40;1.73;;;1.27;;
23400;SDS011;11873;49.300;8.920;2023-03-24T14:36:41;2.17;;;1.27;;
23400;SDS011;11873;49.300;8.920;2023-03-24T14:41:41;3.17;;;1.43;;
23400;SDS011;11873;49.300;8.920;2023-03-24T14:46:44;2.23;;;1.20;;
23400;SDS011;11873;49.300;8.920;2023-03-24T14:57:00;2.13;;;1.20;;
23400;SDS011;11873;49.300;8.920;2023-03-24T15:02:10;5.50;;;1.70;;
23400;SDS011;11873;49.300;8.920;2023-03-24T15:07:12;2.13;;;1.93;;
23400;SDS011;11873;49.300;8.920;2023-03-24T15:12:12;7.70;;;2.63;;
23400;SDS011;11873;49.300;8.920;2023-03-24T15:17:21;2.73;;;1.87;;
23400;SDS011;11873;49.300;8.920;2023-03-24T15:22:21;5.10;;;2.67;;
23400;SDS011;11873;49.300;8.920;2023-03-24T15:27:22;3.43;;;1.57;;
23400;SDS011;11873;49.300;8.920;2023-03-24T15:32:23;2.27;;;1.57;;
23400;SDS011;11873;49.300;8.920;2023-03-24T15:37:29;2.07;;;1.60;;
23400;SDS011;11873;49.300;8.920;2023-03-24T15:42:30;1.63;;;1.50;;
23400;SDS011;11873;49.300;8.920;2023-03-24T15:47:30;2.43;;;1.30;;
23400;SDS011;11873;49.300;8.920;2023-03-24T15:52:32;2.60;;;1.47;;
23400;SDS011;11873;49.300;8.920;2023-03-24T15:57:37;1.70;;;1.50;;
23400;SDS011;11873;49.300;8.920;2023-03-24T16:08:06;1.40;;;1.30;;
23400;SDS011;11873;49.300;8.920;2023-03-24T16:13:16;1.67;;;1.40;;
23400;SDS011;11873;49.300;8.920;2023-03-24T16:18:18;1.53;;;1.43;;
23400;SDS011;11873;49.300;8.920;2023-03-24T16:23:19;1.30;;;1.20;;
23400;SDS011;11873;49.300;8.920;2023-03-24T16:28:20;2.73;;;1.20;;
23400;SDS011;11873;49.300;8.920;2023-03-24T16:33:20;2.90;;;1.47;;
23400;SDS011;11873;49.300;8.920;2023-03-24T16:38:21;1.90;;;1.40;;
23400;SDS011;11873;49.300;8.920;2023-03-24T16:43:21;2.30;;;1.37;;
23400;SDS011;11873;49.300;8.920;2023-03-24T16:48:21;1.23;;;1.13;;
23400;SDS011;11873;49.300;8.920;2023-03-24T16:53:21;1.57;;;1.23;;
23400;SDS011;11873;49.300;8.920;2023-03-24T16:58:21;3.03;;;1.60;;
23400;SDS011;11873;49.300;8.920;2023-03-24T17:03:22;1.40;;;1.30;;
23400;SDS011;11873;49.300;8.920;2023-03-24T17:08:22;1.00;;;1.00;;
23400;SDS011;11873;49.300;8.920;2023-03-24T17:13:23;1.30;;;1.20;;
23400;SDS011;11873;49.300;8.920;2023-03-24T17:18:23;2.10;;;1.40;;
23400;SDS011;11873;49.300;8.920;2023-03-24T17:23:23;5.40;;;4.67;;
23400;SDS011;11873;49.300;8.920;2023-03-24T17:28:24;2.50;;;1.50;;
23400;SDS011;11873;49.300;8.920;2023-03-24T17:33:24;2.17;;;1.17;;
23400;SDS011;11873;49.300;8.920;2023-03-24T17:38:24;1.30;;;1.20;;
23400;SDS011;11873;49.300;8.920;2023-03-24T17:43:24;1.90;;;1.50;;
23400;SDS011;11873;49.300;8.920;2023-03-24T17:48:25;1.80;;;1.50;;
23400;SDS011;11873;49.300;8.920;2023-03-24T17:53:25;2.93;;;1.40;;
23400;SDS011;11873;49.300;8.920;2023-03-24T17:58:25;0.87;;;0.87;;
23400;SDS011;11873;49.300;8.920;2023-03-24T18:03:26;1.27;;;1.10;;
23400;SDS011;11873;49.300;8.920;2023-03-24T18:08:26;1.10;;;1.00;;
23400;SDS011;11873;49.300;8.920;2023-03-24T18:13:26;2.73;;;1.27;;
23400;SDS011;11873;49.300;8.920;2023-03-24T18:18:26;2.37;;;1.20;;
23400;SDS011;11873;49.300;8.920;2023-03-24T18:23:26;1.07;;;1.07;;
23400;SDS011;11873;49.300;8.920;2023-03-24T18:28:27;3.33;;;1.30;;
23400;SDS011;11873;49.300;8.920;2023-03-24T18:33:27;1.40;;;1.30;;
23400;SDS011;11873;49.300;8.920;2023-03-24T18:38:27;1.83;;;1.53;;
23400;SDS011;11873;49.300;8.920;2023-03-24T18:43:27;2.20;;;1.20;;
23400;SDS011;11873;49.300;8.920;2023-03-24T18:48:28;1.63;;;1.27;;
23400;SDS011;11873;49.300;8.920;2023-03-24T18:53:28;1.57;;;1.47;;
23400;SDS011;11873;49.300;8.920;2023-03-24T18:58:28;1.43;;;1.37;;
23400;SDS011;11873;49.300;8.920;2023-03-24T19:03:28;1.57;;;1.47;;
23400;SDS011;11873;49.300;8.920;2023-03-24T19:08:29;1.50;;;1.40;;
23400;SDS011;11873;49.300;8.920;2023-03-24T19:13:29;2.50;;;1.40;;
23400;SDS011;11873;49.300;8.920;2023-03-24T19:18:29;2.47;;;1.97;;
23400;SDS011;11873;49.300;8.920;2023-03-24T19:23:29;3.67;;;2.33;;
23400;SDS011;11873;49.300;8.920;2023-03-24T19:28:30;3.00;;;1.53;;
23400;SDS011;11873;49.300;8.920;2023-03-24T19:33:30;1.70;;;1.50;;
23400;SDS011;11873;49.300;8.920;2023-03-24T19:38:31;1.53;;;1.40;;
23400;SDS011;11873;49.300;8.920;2023-03-24T19:43:31;1.40;;;1.30;;
23400;SDS011;11873;49.300;8.920;2023-03-24T19:48:31;1.63;;;1.50;;
23400;SDS011;11873;49.300;8.920;2023-03-24T19:53:32;1.40;;;1.30;;
23400;SDS011;11873;49.300;8.920;2023-03-24T19:58:32;1.60;;;1.50;;
23400;SDS011;11873;49.300;8.920;2023-03-24T20:03:32;1.80;;;1.53;;
23400;SDS011;11873;49.300;8.920;2023-03-24T20:08:33;1.90;;;1.77;;
23400;SDS011;11873;49.300;8.920;2023-03-24T20:13:33;1.50;;;1.40;;
23400;SDS011;11873;49.300;8.920;2023-03-24T20:18:33;2.13;;;2.03;;
23400;SDS011;11873;49.300;8.920;2023-03-24T20:23:33;4.80;;;3.03;;
23400;SDS011;11873;49.300;8.920;2023-03-24T20:28:34;3.87;;;2.90;;
23400;SDS011;11873;49.300;8.920;2023-03-24T20:33:34;2.00;;;1.90;;
23400;SDS011;11873;49.300;8.920;2023-03-24T20:38:34;1.90;;;1.77;;
23400;SDS011;11873;49.300;8.920;2023-03-24T20:43:35;2.13;;;1.77;;
23400;SDS011;11873;49.300;8.920;2023-03-24T20:48:35;4.30;;;2.37;;
23400;SDS011;11873;49.300;8.920;2023-03-24T20:53:36;1.60;;;1.50;;
23400;SDS011;11873;49.300;8.920;2023-03-24T20:58:36;1.80;;;1.70;;
23400;SDS011;11873;49.300;8.920;2023-03-24T21:03:36;2.50;;;1.50;;
23400;SDS011;11873;49.300;8.920;2023-03-24T21:08:36;2.43;;;1.13;;
23400;SDS011;11873;49.300;8.920;2023-03-24T21:13:37;1.10;;;1.10;;
23400;SDS011;11873;49.300;8.920;2023-03-24T21:18:37;2.53;;;1.35;;
23400;SDS011;11873;49.300;8.920;2023-03-24T21:23:38;2.00;;;0.73;;
23400;SDS011;11873;49.300;8.920;2023-03-24T21:28:38;1.60;;;1.00;;
23400;SDS011;11873;49.300;8.920;2023-03-24T21:33:38;1.47;;;1.20;;
23400;SDS011;11873;49.300;8.920;2023-03-24T21:38:39;0.80;;;0.80;;
23400;SDS011;11873;49.300;8.920;2023-03-24T21:43:39;0.70;;;0.70;;
23400;SDS011;11873;49.300;8.920;2023-03-24T21:48:39;1.10;;;1.00;;
23400;SDS011;11873;49.300;8.920;2023-03-24T21:53:39;1.83;;;1.10;;
23400;SDS011;11873;49.300;8.920;2023-03-24T21:58:40;1.20;;;1.10;;
23400;SDS011;11873;49.300;8.920;2023-03-24T22:03:40;1.23;;;1.10;;
23400;SDS011;11873;49.300;8.920;2023-03-24T22:08:40;2.63;;;1.10;;
23400;SDS011;11873;49.300;8.920;2023-03-24T22:13:40;1.20;;;1.20;;
23400;SDS011;11873;49.300;8.920;2023-03-24T22:18:40;1.10;;;1.10;;
23400;SDS011;11873;49.300;8.920;2023-03-24T22:23:41;1.70;;;1.40;;
23400;SDS011;11873;49.300;8.920;2023-03-24T22:28:41;3.50;;;1.20;;
23400;SDS011;11873;49.300;8.920;2023-03-24T22:33:41;2.23;;;1.70;;
23400;SDS011;11873;49.300;8.920;2023-03-24T22:38:41;1.33;;;1.23;;
23400;SDS011;11873;49.300;8.920;2023-03-24T22:43:42;3.60;;;1.30;;
23400;SDS011;11873;49.300;8.920;2023-03-24T22:48:42;1.90;;;1.30;;
23400;SDS011;11873;49.300;8.920;2023-03-24T22:53:42;1.83;;;1.40;;
23400;SDS011;11873;49.300;8.920;2023-03-24T22:58:42;1.70;;;1.60;;
23400;SDS011;11873;49.300;8.920;2023-03-24T23:03:43;1.30;;;1.10;;
23400;SDS011;11873;49.300;8.920;2023-03-24T23:08:43;0.70;;;0.70;;
23400;SDS011;11873;49.300;8.920;2023-03-24T23:13:43;0.40;;;0.40;;
23400;SDS011;11873;49.300;8.920;2023-03-24T23:18:43;0.40;;;0.40;;
23400;SDS011;11873;49.300;8.920;2023-03-24T23:23:43;0.40;;;0.40;;
23400;SDS011;11873;49.300;8.920;2023-03-24T23:28:44;0.40;;;0.40;;
23400;SDS011;11873;49.300;8.920;2023-03-24T23:33:44;0.40;;;0.40;;
23400;SDS011;11873;49.300;8.920;2023-03-24T23:38:45;0.40;;;0.40;;
23400;SDS011;11873;49.300;8.920;2023-03-24T23:43:49;0.33;;;0.33;;
23400;SDS011;11873;49.300;8.920;2023-03-24T23:48:49;0.40;;;0.40;;
23400;SDS011;11873;49.300;8.920;2023-03-24T23:53:49;0.40;;;0.40;;
23400;SDS011;11873;49.300;8.920;2023-03-24T23:58:49;0.40;;;0.40;;
